createdAt,value
2019-03-02T00:01:36.419Z,5.47
2019-03-02T00:04:09.584Z,6.13
2019-03-02T00:06:35.676Z,5.47
2019-03-02T00:09:02.616Z,5.87
2019-03-02T00:11:29.925Z,5.70
2019-03-02T00:13:57.276Z,5.77
2019-03-02T00:16:25.587Z,5.63
2019-03-02T00:18:52.994Z,6.90
2019-03-02T00:21:20.296Z,7.20
2019-03-02T00:23:50.848Z,7.47
2019-03-02T00:26:16.741Z,8.73
2019-03-02T00:28:43.911Z,9.80
2019-03-02T00:31:11.177Z,10.80
2019-03-02T00:33:38.383Z,11.63
2019-03-02T00:36:05.576Z,11.93
2019-03-02T00:38:33.008Z,12.60
2019-03-02T00:41:00.328Z,11.67
2019-03-02T00:43:28.013Z,13.47
2019-03-02T00:45:57.318Z,13.53
2019-03-02T00:48:24.472Z,13.97
2019-03-02T00:50:51.796Z,13.17
2019-03-02T00:53:19.012Z,14.73
2019-03-02T00:55:46.343Z,13.93
2019-03-02T00:58:13.687Z,13.30
2019-03-02T01:00:41.367Z,13.43
2019-03-02T01:03:11.982Z,11.77
2019-03-02T01:05:37.775Z,12.97
2019-03-02T01:08:05.110Z,12.47
2019-03-02T01:10:32.431Z,11.67
2019-03-02T01:12:59.673Z,11.93
2019-03-02T01:15:26.911Z,12.43
2019-03-02T01:17:54.157Z,10.03
2019-03-02T01:20:24.940Z,9.50
2019-03-02T01:22:51.777Z,9.20
2019-03-02T01:25:19.700Z,9.47
2019-03-02T01:27:47.031Z,9.40
2019-03-02T01:30:15.495Z,8.27
2019-03-02T01:32:42.846Z,7.70
2019-03-02T01:35:10.150Z,7.73
2019-03-02T01:37:40.086Z,7.83
2019-03-02T01:40:09.105Z,7.30
2019-03-02T01:42:36.405Z,7.23
2019-03-02T01:45:04.395Z,7.23
2019-03-02T01:47:31.703Z,7.60
2019-03-02T01:49:59.040Z,6.30
2019-03-02T01:52:26.357Z,6.30
2019-03-02T01:54:55.723Z,6.17
2019-03-02T01:57:22.829Z,6.57
2019-03-02T01:59:50.146Z,6.53
2019-03-02T02:02:17.491Z,7.37
2019-03-02T02:04:44.700Z,6.27
2019-03-02T02:07:14.404Z,7.07
2019-03-02T02:09:41.454Z,7.50
2019-03-02T02:12:08.743Z,6.73
2019-03-02T02:14:36.079Z,6.60
2019-03-02T02:17:03.432Z,7.03
2019-03-02T02:19:30.736Z,6.73
2019-03-02T02:21:58.851Z,6.53
2019-03-02T02:24:27.064Z,7.40
2019-03-02T02:26:54.267Z,6.77
2019-03-02T02:29:21.595Z,7.10
2019-03-02T02:31:48.796Z,7.20
2019-03-02T02:34:21.133Z,6.87
2019-03-02T02:36:45.131Z,7.37
2019-03-02T02:39:14.542Z,7.50
2019-03-02T02:41:41.885Z,7.63
2019-03-02T02:44:09.212Z,7.60
2019-03-02T02:46:36.475Z,7.43
2019-03-02T02:49:05.505Z,7.37
2019-03-02T02:51:32.928Z,7.53
2019-03-02T02:54:00.244Z,7.50
2019-03-02T02:56:27.575Z,7.73
2019-03-02T02:58:56.298Z,8.07
2019-03-02T03:01:24.013Z,8.13
2019-03-02T03:03:54.910Z,9.03
2019-03-02T03:06:20.621Z,8.77
2019-03-02T03:08:48.007Z,8.57
2019-03-02T03:11:15.338Z,9.13
2019-03-02T03:13:42.484Z,9.90
2019-03-02T03:16:11.502Z,9.80
2019-03-02T03:18:40.029Z,10.80
2019-03-02T03:21:07.308Z,11.07
2019-03-02T03:23:34.484Z,11.10
2019-03-02T03:26:01.692Z,11.17
2019-03-02T03:28:30.714Z,11.20
2019-03-02T03:30:58.189Z,11.33
2019-03-02T03:33:25.471Z,10.73
2019-03-02T03:35:56.186Z,11.00
2019-03-02T03:38:24.836Z,10.27
2019-03-02T03:40:51.013Z,10.43
2019-03-02T03:43:21.412Z,10.43
2019-03-02T03:45:48.732Z,10.07
2019-03-02T03:48:18.093Z,9.47
2019-03-02T03:50:47.981Z,9.80
2019-03-02T03:53:14.300Z,10.23
2019-03-02T03:55:41.691Z,9.97
2019-03-02T03:58:09.119Z,9.50
2019-03-02T04:00:38.638Z,9.67
2019-03-02T04:03:08.944Z,9.33
2019-03-02T04:05:34.773Z,10.40
2019-03-02T04:08:02.010Z,11.67
2019-03-02T04:10:29.326Z,11.80
2019-03-02T04:13:04.198Z,12.57
2019-03-02T04:15:25.865Z,13.80
2019-03-02T04:17:53.188Z,14.10
2019-03-02T04:20:24.165Z,13.60
2019-03-02T04:22:52.950Z,13.20
2019-03-02T04:25:20.154Z,13.43
2019-03-02T04:27:53.663Z,14.07
2019-03-02T04:30:16.613Z,15.17
2019-03-02T04:32:43.920Z,15.07
2019-03-02T04:35:11.230Z,16.10
2019-03-02T04:37:38.592Z,16.80
2019-03-02T04:40:06.177Z,15.47
2019-03-02T04:42:33.387Z,13.53
2019-03-02T04:45:01.569Z,14.27
2019-03-02T04:47:29.928Z,15.20
2019-03-02T04:49:57.243Z,15.00
2019-03-02T04:52:25.039Z,14.33
2019-03-02T04:54:52.247Z,13.87
2019-03-02T04:57:19.449Z,14.33
2019-03-02T04:59:46.770Z,15.40
2019-03-02T05:02:16.740Z,14.77
2019-03-02T05:04:43.249Z,11.07
2019-03-02T05:07:10.538Z,14.67
2019-03-02T05:09:37.632Z,13.87
2019-03-02T05:12:04.875Z,13.93
2019-03-02T05:14:32.188Z,13.47
2019-03-02T05:16:59.518Z,14.03
2019-03-02T05:19:29.192Z,14.40
2019-03-02T05:21:55.934Z,14.87
2019-03-02T05:24:23.160Z,14.87
2019-03-02T05:26:53.466Z,10.53
2019-03-02T05:29:19.635Z,13.07
2019-03-02T05:31:46.832Z,12.70
2019-03-02T05:34:14.060Z,13.60
2019-03-02T05:36:41.414Z,13.47
2019-03-02T05:39:08.702Z,12.33
2019-03-02T05:41:39.315Z,10.33
2019-03-02T05:44:05.168Z,14.07
2019-03-02T05:46:32.599Z,12.70
2019-03-02T05:48:59.852Z,14.00
2019-03-02T05:51:27.087Z,13.87
2019-03-02T05:53:54.426Z,13.57
2019-03-02T05:56:21.743Z,11.83
2019-03-02T05:58:51.163Z,13.30
2019-03-02T06:01:18.075Z,13.37
2019-03-02T06:03:46.895Z,12.47
2019-03-02T06:06:14.164Z,12.47
2019-03-02T06:08:41.523Z,12.67
2019-03-02T06:11:08.813Z,13.87
2019-03-02T06:13:36.224Z,13.40
2019-03-02T06:16:03.919Z,13.53
2019-03-02T06:18:31.139Z,13.37
2019-03-02T06:20:58.455Z,12.93
2019-03-02T06:23:26.586Z,13.97
2019-03-02T06:25:55.267Z,14.43
2019-03-02T06:28:23.961Z,14.27
2019-03-02T06:30:51.290Z,14.40
2019-03-02T06:33:32.568Z,16.00
2019-03-02T06:35:59.831Z,16.30
2019-03-02T06:38:32.145Z,16.13
2019-03-02T06:40:59.001Z,15.53
2019-03-02T06:43:26.302Z,16.20
2019-03-02T06:45:53.569Z,15.33
2019-03-02T06:48:20.899Z,15.93
2019-03-02T06:50:48.155Z,16.60
2019-03-02T06:53:16.400Z,15.70
2019-03-02T06:55:43.895Z,16.27
2019-03-02T06:58:11.291Z,15.57
2019-03-02T07:00:38.586Z,15.90
2019-03-02T07:03:06.725Z,16.17
2019-03-02T07:05:37.212Z,16.70
2019-03-02T07:08:04.168Z,17.10
2019-03-02T07:10:33.013Z,17.10
2019-03-02T07:13:01.855Z,16.93
2019-03-02T07:15:29.273Z,17.03
2019-03-02T07:18:11.380Z,16.93
2019-03-02T07:20:39.315Z,18.33
2019-03-02T07:23:06.636Z,16.47
2019-03-02T07:25:37.071Z,17.13
2019-03-02T07:28:05.909Z,16.93
2019-03-02T07:30:32.587Z,15.83
2019-03-02T07:32:59.917Z,15.53
2019-03-02T07:35:27.227Z,15.70
2019-03-02T07:37:54.640Z,13.63
2019-03-02T07:40:23.509Z,15.87
2019-03-02T07:42:50.951Z,16.07
2019-03-02T07:45:18.359Z,16.57
2019-03-02T07:47:45.653Z,15.70
2019-03-02T07:50:13.296Z,15.63
2019-03-02T07:52:40.663Z,14.07
2019-03-02T07:55:08.477Z,14.57
2019-03-02T07:57:35.763Z,14.40
2019-03-02T08:00:05.569Z,14.80
2019-03-02T08:02:33.466Z,9.83
2019-03-02T08:05:00.712Z,12.70
2019-03-02T08:07:28.020Z,11.97
2019-03-02T08:09:55.338Z,11.70
2019-03-02T08:12:24.800Z,11.23
2019-03-02T08:14:51.592Z,12.17
2019-03-02T08:17:18.839Z,10.23
2019-03-02T08:19:48.535Z,13.07
2019-03-02T08:22:14.946Z,14.40
2019-03-02T08:24:43.807Z,13.23
2019-03-02T08:27:11.268Z,13.33
2019-03-02T08:29:38.578Z,14.00
2019-03-02T08:32:05.917Z,13.43
2019-03-02T08:34:33.217Z,13.20
2019-03-02T08:37:00.576Z,12.10
2019-03-02T08:39:27.917Z,13.60
2019-03-02T08:41:55.230Z,12.63
2019-03-02T08:44:22.553Z,11.43
2019-03-02T08:46:49.864Z,12.27
2019-03-02T08:49:17.187Z,11.00
2019-03-02T08:51:44.403Z,11.83
2019-03-02T08:54:11.727Z,12.40
2019-03-02T08:56:38.873Z,12.77
2019-03-02T08:59:06.083Z,11.43
2019-03-02T09:01:33.353Z,12.37
2019-03-02T09:04:00.573Z,12.57
2019-03-02T09:06:30.865Z,13.40
2019-03-02T09:08:56.914Z,12.83
2019-03-02T09:11:24.216Z,12.93
2019-03-02T09:13:51.438Z,12.07
2019-03-02T09:16:18.667Z,14.17
2019-03-02T09:18:46.057Z,12.97
2019-03-02T09:21:13.671Z,12.17
2019-03-02T09:23:40.996Z,11.67
2019-03-02T09:26:08.256Z,12.37
2019-03-02T09:28:35.467Z,12.57
2019-03-02T09:31:03.366Z,12.30
2019-03-02T09:33:30.622Z,13.40
2019-03-02T09:35:57.830Z,11.43
2019-03-02T09:38:25.193Z,12.20
2019-03-02T09:40:52.487Z,13.03
2019-03-02T09:43:19.675Z,13.40
2019-03-02T09:45:48.036Z,12.83
2019-03-02T09:48:16.330Z,13.93
2019-03-02T09:50:43.799Z,12.87
2019-03-02T09:53:10.999Z,13.83
2019-03-02T09:55:38.269Z,14.50
2019-03-02T09:58:06.395Z,13.33
2019-03-02T10:00:35.870Z,13.97
2019-03-02T10:03:02.913Z,14.07
2019-03-02T10:05:30.242Z,12.70
2019-03-02T10:07:57.580Z,11.83
2019-03-02T10:10:28.451Z,13.70
2019-03-02T10:12:54.008Z,11.80
2019-03-02T10:15:21.472Z,12.40
2019-03-02T10:17:48.804Z,12.33
2019-03-02T10:20:16.132Z,12.40
2019-03-02T10:22:43.384Z,11.63
2019-03-02T10:25:10.935Z,12.83
2019-03-02T10:27:38.312Z,12.30
2019-03-02T10:30:08.692Z,12.33
2019-03-02T10:32:35.919Z,12.67
2019-03-02T10:35:03.150Z,12.50
2019-03-02T10:37:30.435Z,13.23
2019-03-02T10:39:57.739Z,9.23
2019-03-02T10:42:24.946Z,12.83
2019-03-02T10:44:53.788Z,10.63
2019-03-02T10:47:21.408Z,11.10
2019-03-02T10:49:49.253Z,11.37
2019-03-02T10:52:16.641Z,11.77
2019-03-02T10:54:43.943Z,10.97
2019-03-02T10:57:11.181Z,12.20
2019-03-02T10:59:38.494Z,11.70
2019-03-02T11:02:05.712Z,12.27
2019-03-02T11:04:43.945Z,12.00
2019-03-02T11:07:29.500Z,10.37
2019-03-02T11:10:16.634Z,11.87
2019-03-02T11:13:07.708Z,12.47
2019-03-02T11:16:12.709Z,12.27
2019-03-02T11:18:58.236Z,13.43
2019-03-02T11:21:35.528Z,13.33
2019-03-02T11:24:20.963Z,13.33
2019-03-02T11:26:54.430Z,11.63
2019-03-02T11:29:33.147Z,12.33
2019-03-02T11:32:16.895Z,11.67
2019-03-02T11:34:52.534Z,11.90
2019-03-02T11:37:45.060Z,11.67
2019-03-02T11:40:32.966Z,12.83
2019-03-02T11:43:24.692Z,12.23
2019-03-02T11:46:07.303Z,12.77
2019-03-02T11:48:42.962Z,14.07
2019-03-02T11:51:17.183Z,12.53
2019-03-02T11:54:04.106Z,13.30
2019-03-02T11:56:46.597Z,12.07
2019-03-02T11:59:42.072Z,12.43
2019-03-02T12:02:25.877Z,13.63
2019-03-02T12:05:18.896Z,13.93
2019-03-02T12:08:11.859Z,12.40
2019-03-02T12:10:45.121Z,12.87
2019-03-02T12:13:34.803Z,9.50
2019-03-02T12:16:26.492Z,9.80
2019-03-02T12:19:13.448Z,12.53
2019-03-02T12:21:57.720Z,11.30
2019-03-02T12:24:33.684Z,10.07
2019-03-02T12:27:22.115Z,10.73
2019-03-02T12:30:05.724Z,9.93
2019-03-02T12:32:52.727Z,10.30
2019-03-02T12:35:33.912Z,7.43
2019-03-02T12:38:15.536Z,5.73
2019-03-02T12:41:05.892Z,8.73
2019-03-02T12:44:01.451Z,7.03
2019-03-02T12:46:52.280Z,5.53
2019-03-02T12:49:39.740Z,8.63
2019-03-02T12:52:19.504Z,8.43
2019-03-02T12:54:54.247Z,8.80
2019-03-02T12:57:45.408Z,8.73
2019-03-02T13:00:22.378Z,7.67
2019-03-02T13:03:11.904Z,8.87
2019-03-02T13:05:57.582Z,8.83
2019-03-02T13:08:49.313Z,10.07
2019-03-02T13:11:45.215Z,9.97
2019-03-02T13:14:22.564Z,9.70
2019-03-02T13:17:09.523Z,5.13
2019-03-02T13:19:48.515Z,9.07
2019-03-02T13:22:40.590Z,9.83
2019-03-02T13:25:26.137Z,10.07
2019-03-02T13:28:11.543Z,9.50
2019-03-02T13:30:54.024Z,9.17
2019-03-02T13:33:46.670Z,7.93
2019-03-02T13:36:33.619Z,8.03
2019-03-02T13:39:16.435Z,8.67
2019-03-02T13:42:09.316Z,7.87
2019-03-02T13:44:56.263Z,7.87
2019-03-02T13:47:48.673Z,8.63
2019-03-02T13:50:23.319Z,7.77
2019-03-02T13:52:59.882Z,8.23
2019-03-02T13:55:45.852Z,8.00
2019-03-02T13:58:45.064Z,7.83
2019-03-02T14:01:21.305Z,7.63
2019-03-02T14:04:12.215Z,7.50
2019-03-02T14:06:58.539Z,7.80
2019-03-02T14:09:45.516Z,6.97
2019-03-02T14:12:50.829Z,8.37
2019-03-02T14:15:37.695Z,8.27
2019-03-02T14:18:14.573Z,8.03
2019-03-02T14:21:02.507Z,8.27
2019-03-02T14:23:37.938Z,8.10
2019-03-02T14:26:15.181Z,9.33
2019-03-02T14:28:52.709Z,9.10
2019-03-02T14:31:42.392Z,8.77
2019-03-02T14:34:15.082Z,9.40
2019-03-02T14:37:02.637Z,9.00
2019-03-02T14:39:38.125Z,9.87
2019-03-02T14:42:18.575Z,9.63
2019-03-02T14:45:06.326Z,9.47
2019-03-02T14:47:52.660Z,9.70
2019-03-02T14:50:44.164Z,10.00
2019-03-02T14:53:32.724Z,10.90
2019-03-02T14:56:21.600Z,10.07
2019-03-02T14:59:23.564Z,11.80
2019-03-02T15:01:57.267Z,11.80
2019-03-02T15:04:33.003Z,12.23
2019-03-02T15:07:18.368Z,12.60
2019-03-02T15:10:03.084Z,13.87
2019-03-02T15:12:52.494Z,12.93
2019-03-02T15:15:42.051Z,12.33
2019-03-02T15:18:29.466Z,13.37
2019-03-02T15:21:11.656Z,13.10
2019-03-02T15:23:58.997Z,13.23
2019-03-02T15:26:31.312Z,13.07
2019-03-02T15:29:16.260Z,13.50
2019-03-02T15:31:51.647Z,13.37
2019-03-02T15:34:49.373Z,13.00
2019-03-02T15:37:24.175Z,13.10
2019-03-02T15:39:57.179Z,13.40
2019-03-02T15:42:35.142Z,14.00
2019-03-02T15:45:18.857Z,13.37
2019-03-02T15:47:57.676Z,14.13
2019-03-02T15:50:39.304Z,15.63
2019-03-02T15:53:16.157Z,13.27
2019-03-02T15:55:52.869Z,13.40
2019-03-02T15:58:35.649Z,14.37
2019-03-02T16:01:23.241Z,13.07
2019-03-02T16:04:08.140Z,13.33
2019-03-02T16:06:40.036Z,13.27
2019-03-02T16:09:32.551Z,13.80
2019-03-02T16:12:09.838Z,13.40
2019-03-02T16:14:47.946Z,13.87
2019-03-02T16:17:27.247Z,14.00
2019-03-02T16:20:07.446Z,13.50
2019-03-02T16:22:48.855Z,14.23
2019-03-02T16:25:53.714Z,14.33
2019-03-02T16:28:30.363Z,14.30
2019-03-02T16:31:20.058Z,14.47
2019-03-02T16:33:56.473Z,13.60
2019-03-02T16:36:31.431Z,13.07
2019-03-02T16:39:18.377Z,12.60
2019-03-02T16:42:12.232Z,13.70
2019-03-02T16:45:08.495Z,13.57
2019-03-02T16:47:41.884Z,13.77
2019-03-02T16:50:18.427Z,13.60
2019-03-02T16:53:22.509Z,14.20
2019-03-02T16:56:07.363Z,13.40
2019-03-02T16:58:55.786Z,13.83
2019-03-02T17:01:30.928Z,13.10
2019-03-02T17:04:18.830Z,13.03
2019-03-02T17:06:58.800Z,15.07
2019-03-02T17:09:55.764Z,13.57
2019-03-02T17:12:50.084Z,13.17
2019-03-02T17:15:29.430Z,11.73
2019-03-02T17:18:16.459Z,13.33
2019-03-02T17:20:52.862Z,14.13
2019-03-02T17:23:27.362Z,13.67
2019-03-02T17:26:12.824Z,14.70
2019-03-02T17:28:49.548Z,14.93
2019-03-02T17:31:21.690Z,14.50
2019-03-02T17:34:03.928Z,15.97
2019-03-02T17:37:00.887Z,14.10
2019-03-02T17:39:38.469Z,13.73
2019-03-02T17:42:23.807Z,14.63
2019-03-02T17:45:01.508Z,14.83
2019-03-02T17:47:54.186Z,14.93
2019-03-02T17:50:39.382Z,14.57
2019-03-02T17:53:27.190Z,16.40
2019-03-02T17:56:13.566Z,15.53
2019-03-02T17:58:46.358Z,15.33
2019-03-02T18:01:23.580Z,15.93
2019-03-02T18:04:10.967Z,15.50
2019-03-02T18:06:48.248Z,16.60
2019-03-02T18:09:41.637Z,16.20
2019-03-02T18:12:29.420Z,16.47
2019-03-02T18:15:22.110Z,15.23
2019-03-02T18:18:02.871Z,15.77
2019-03-02T18:20:31.705Z,16.07
2019-03-02T18:22:59.021Z,15.63
2019-03-02T18:25:26.359Z,15.10
2019-03-02T18:27:53.595Z,16.17
2019-03-02T18:30:20.976Z,15.27
2019-03-02T18:32:49.596Z,15.60
2019-03-02T18:35:16.805Z,16.50
2019-03-02T18:37:44.157Z,16.40
2019-03-02T18:40:11.591Z,15.00
2019-03-02T18:42:38.826Z,15.37
2019-03-02T18:45:07.544Z,14.17
2019-03-02T18:47:34.872Z,14.07
2019-03-02T18:50:17.496Z,14.77
2019-03-02T18:52:49.777Z,14.87
2019-03-02T18:55:17.094Z,15.83
2019-03-02T18:57:46.588Z,15.50
2019-03-02T19:00:16.071Z,15.40
2019-03-02T19:02:48.187Z,15.00
2019-03-02T19:05:15.272Z,15.50
2019-03-02T19:07:42.583Z,16.10
2019-03-02T19:10:09.928Z,15.47
2019-03-02T19:12:37.251Z,16.07
2019-03-02T19:15:04.863Z,15.40
2019-03-02T19:17:41.567Z,15.70
2019-03-02T19:20:08.807Z,16.27
2019-03-02T19:22:36.120Z,16.47
2019-03-02T19:25:04.430Z,16.73
2019-03-02T19:27:31.673Z,16.60
2019-03-02T19:29:59.000Z,15.80
2019-03-02T19:32:26.395Z,14.83
2019-03-02T19:34:53.631Z,14.43
2019-03-02T19:37:20.942Z,15.70
2019-03-02T19:39:48.256Z,15.30
2019-03-02T19:42:15.483Z,14.77
2019-03-02T19:44:42.687Z,14.00
2019-03-02T19:47:09.931Z,15.60
2019-03-02T19:49:37.397Z,15.57
2019-03-02T19:52:04.734Z,14.13
2019-03-02T19:54:32.035Z,14.83
2019-03-02T19:56:59.245Z,15.07
2019-03-02T19:59:26.373Z,13.87
2019-03-02T20:01:53.584Z,13.57
2019-03-02T20:04:20.900Z,13.73
2019-03-02T20:06:48.205Z,13.43
2019-03-02T20:09:15.628Z,14.30
2019-03-02T20:11:42.861Z,16.40
2019-03-02T20:14:10.185Z,15.03
2019-03-02T20:16:37.659Z,14.83
2019-03-02T20:19:04.948Z,14.73
2019-03-02T20:21:32.291Z,15.00
2019-03-02T20:23:59.528Z,15.10
2019-03-02T20:26:26.853Z,15.47
2019-03-02T20:28:54.235Z,13.97
2019-03-02T20:31:21.463Z,15.30
2019-03-02T20:33:48.579Z,14.50
2019-03-02T20:36:15.940Z,14.27
2019-03-02T20:38:43.091Z,15.43
2019-03-02T20:41:10.379Z,15.20
2019-03-02T20:43:37.741Z,15.10
2019-03-02T20:46:05.051Z,15.63
2019-03-02T20:48:32.261Z,15.43
2019-03-02T20:50:59.591Z,15.53
2019-03-02T20:53:26.816Z,15.57
2019-03-02T20:55:54.152Z,16.07
2019-03-02T20:58:21.385Z,14.37
2019-03-02T21:00:48.920Z,16.13
2019-03-02T21:03:16.156Z,16.07
2019-03-02T21:05:43.383Z,15.37
2019-03-02T21:08:10.604Z,15.00
2019-03-02T21:10:37.917Z,14.07
2019-03-02T21:13:05.288Z,14.83
2019-03-02T21:15:34.051Z,15.17
2019-03-02T21:18:01.369Z,14.73
2019-03-02T21:20:28.744Z,15.00
2019-03-02T21:22:56.055Z,13.87
2019-03-02T21:25:23.301Z,13.97
2019-03-02T21:27:50.683Z,13.83
2019-03-02T21:30:18.115Z,14.30
2019-03-02T21:32:45.347Z,14.60
2019-03-02T21:37:18.980Z,12.97
2019-03-02T21:39:46.285Z,14.43
2019-03-02T21:42:13.537Z,14.17
2019-03-02T21:44:41.077Z,15.50
2019-03-02T21:47:08.821Z,14.13
2019-03-02T21:49:36.044Z,13.63
2019-03-02T21:52:03.492Z,13.90
2019-03-02T21:54:30.624Z,13.70
2019-03-02T21:56:57.939Z,14.23
2019-03-02T21:59:25.393Z,13.63
2019-03-02T22:01:52.800Z,14.03
2019-03-02T22:04:20.031Z,14.00
2019-03-02T22:06:47.441Z,13.33
2019-03-02T22:09:14.672Z,12.83
2019-03-02T22:11:41.883Z,13.50
2019-03-02T22:14:09.220Z,13.13
2019-03-02T22:16:36.612Z,12.73
2019-03-02T22:19:03.936Z,14.20
2019-03-02T22:21:31.251Z,14.20
2019-03-02T22:23:58.501Z,13.90
2019-03-02T22:26:25.814Z,13.17
2019-03-02T22:28:53.096Z,13.43
2019-03-02T22:31:20.519Z,13.40
2019-03-02T22:33:47.888Z,12.90
2019-03-02T22:36:15.256Z,13.30
2019-03-02T22:38:42.615Z,12.17
2019-03-02T22:41:10.048Z,12.17
2019-03-02T22:43:37.495Z,12.90
2019-03-02T22:46:04.817Z,12.23
2019-03-02T22:48:32.175Z,12.87
2019-03-02T22:50:59.384Z,13.40
2019-03-02T22:53:26.819Z,12.30
2019-03-02T22:55:54.047Z,12.97
2019-03-02T22:58:30.728Z,12.50
2019-03-02T23:01:23.367Z,12.53
2019-03-02T23:03:50.727Z,11.47
2019-03-02T23:06:18.052Z,12.40
2019-03-02T23:08:45.403Z,11.57
2019-03-02T23:11:12.655Z,11.10
2019-03-02T23:13:39.974Z,11.37
2019-03-02T23:16:07.372Z,11.27
2019-03-02T23:18:34.740Z,10.90
2019-03-02T23:21:02.172Z,11.77
2019-03-02T23:23:29.495Z,11.60
2019-03-02T23:25:56.714Z,10.73
2019-03-02T23:28:24.062Z,10.27
2019-03-02T23:30:51.467Z,10.80
2019-03-02T23:33:18.777Z,11.10
2019-03-02T23:35:46.068Z,9.70
2019-03-02T23:38:13.210Z,10.20
2019-03-02T23:40:40.656Z,9.83
2019-03-02T23:43:08.003Z,10.17
2019-03-02T23:45:35.211Z,9.80
2019-03-02T23:48:02.560Z,10.10
2019-03-02T23:50:29.812Z,10.07
2019-03-02T23:52:57.041Z,9.67
2019-03-02T23:55:24.379Z,8.70
2019-03-02T23:57:51.720Z,9.90
